Time;durP1;ratioP1;P1;durP2;ratioP2;P2;SDS_P1;SDS_P2;PMS_P1;PMS_P2;Temp;Humidity;BMP_temperature;BMP_pressure;BME280_temperature;BME280_humidity;BME280_pressure;Samples;Min_cycle;Max_cycle;Signal;HPM_P1;HPM_P2
2022/12/30 00:02:05;;;;;;;;;;;6.90;99.90;;;;;;5067863;28;19909;-69
2022/12/30 00:04:30;;;;;;;;;;;6.90;99.90;;;;;;5081131;28;19914;-69
2022/12/30 00:06:56;;;;;;;;;;;6.90;99.90;;;;;;5087596;28;20024;-68
2022/12/30 00:09:21;;;;;;;;;;;6.90;99.90;;;;;;5087768;28;19912;-69
2022/12/30 00:11:47;;;;;;;;;;;6.90;99.90;;;;;;5087867;28;20334;-69
2022/12/30 00:33:51;;;;;;;;;;;6.80;99.90;;;;;;5087211;28;20664;-69
2022/12/30 00:36:17;;;;;;;;;;;6.80;99.90;;;;;;5087445;28;19922;-69
2022/12/30 00:38:43;;;;;;;;;;;6.80;99.90;;;;;;5087183;28;20696;-69
2022/12/30 00:43:53;;;;;;;;;;;6.80;99.90;;;;;;5087408;28;19997;-69
2022/12/30 00:46:19;;;;;;;;;;;6.80;99.90;;;;;;5087521;28;19916;-69
2022/12/30 00:56:59;;;;;;;;;;;6.70;99.90;;;;;;5086431;28;19962;-69
2022/12/30 00:59:24;;;;;;;;;;;6.70;99.90;;;;;;5086676;28;19912;-69
2022/12/30 01:01:50;;;;;;;;;;;6.70;99.90;;;;;;5087079;28;19934;-69
2022/12/30 01:04:15;;;;;;;;;;;6.70;99.90;;;;;;5086645;28;19919;-69
2022/12/30 01:06:41;;;;;;;;;;;6.70;99.90;;;;;;5086910;28;19912;-69
2022/12/30 01:09:06;;;;;;;;;;;6.70;99.90;;;;;;5086899;28;20389;-69
2022/12/30 01:11:32;;;;;;;;;;;6.70;99.90;;;;;;5086532;28;19916;-69
2022/12/30 01:13:57;;;;;;;;;;;6.70;99.90;;;;;;5085908;28;19942;-68
2022/12/30 01:16:23;;;;;;;;;;;6.70;99.90;;;;;;5068213;28;19947;-69
2022/12/30 01:18:48;;;;;;;;;;;6.70;99.90;;;;;;5086843;28;19918;-69
2022/12/30 01:21:14;;;;;;;;;;;6.70;99.90;;;;;;5085754;28;20612;-69
2022/12/30 01:23:39;;;;;;;;;;;6.70;99.90;;;;;;5086781;28;19966;-69
2022/12/30 01:26:05;;;;;;;;;;;6.70;99.90;;;;;;5086621;28;20493;-68
2022/12/30 01:28:32;;;;;;;;;;;6.70;99.90;;;;;;5086622;28;20437;-69
2022/12/30 01:30:58;;;;;;;;;;;6.70;99.90;;;;;;5085015;28;19922;-69
2022/12/30 01:33:24;;;;;;;;;;;6.70;99.90;;;;;;5089933;28;19923;-69
2022/12/30 01:35:49;;;;;;;;;;;6.70;99.90;;;;;;5090549;28;19908;-69
2022/12/30 01:38:15;;;;;;;;;;;6.60;99.90;;;;;;5090496;28;19920;-69
2022/12/30 01:40:41;;;;;;;;;;;6.70;99.90;;;;;;5072044;28;20025;-69
2022/12/30 01:43:11;;;;;;;;;;;6.60;99.90;;;;;;5071486;28;19916;-69
2022/12/30 01:45:37;;;;;;;;;;;6.60;99.90;;;;;;5069980;28;19916;-69
2022/12/30 01:48:04;;;;;;;;;;;6.60;99.90;;;;;;5089704;28;19919;-69
2022/12/30 01:50:39;;;;;;;;;;;6.60;99.90;;;;;;5089828;28;19982;-69
2022/12/30 01:53:15;;;;;;;;;;;6.60;99.90;;;;;;5090436;28;19915;-69
2022/12/30 01:55:54;;;;;;;;;;;6.60;99.90;;;;;;5090693;28;19954;-69
2022/12/30 01:58:28;;;;;;;;;;;6.60;99.90;;;;;;5073462;28;19959;-69
2022/12/30 02:00:54;;;;;;;;;;;6.60;99.90;;;;;;5070294;28;19991;-69
2022/12/30 02:03:19;;;;;;;;;;;6.60;99.90;;;;;;5070659;28;20393;-69
2022/12/30 02:05:46;;;;;;;;;;;6.60;99.90;;;;;;5070581;28;19919;-69
2022/12/30 02:08:13;;;;;;;;;;;6.60;99.90;;;;;;5070336;28;20392;-69
2022/12/30 02:10:41;;;;;;;;;;;6.60;99.90;;;;;;5080233;28;19919;-69
2022/12/30 02:13:09;;;;;;;;;;;6.60;99.90;;;;;;5089529;28;19972;-69
2022/12/30 02:15:40;;;;;;;;;;;6.50;99.90;;;;;;5090291;28;20391;-69
2022/12/30 02:18:15;;;;;;;;;;;6.50;99.90;;;;;;5090100;28;20336;-69
2022/12/30 02:20:49;;;;;;;;;;;6.50;99.90;;;;;;5088389;28;19908;-69
2022/12/30 02:23:44;;;;;;;;;;;6.50;99.90;;;;;;5089800;28;19908;-69
2022/12/30 02:26:19;;;;;;;;;;;6.50;99.90;;;;;;5076343;28;19908;-69
2022/12/30 02:28:47;;;;;;;;;;;6.50;99.90;;;;;;5070002;28;19908;-69
2022/12/30 02:31:12;;;;;;;;;;;6.50;99.90;;;;;;5069506;28;19959;-71
2022/12/30 02:33:41;;;;;;;;;;;6.50;99.90;;;;;;5086501;28;20344;-71
2022/12/30 02:36:07;;;;;;;;;;;6.50;99.90;;;;;;5089344;28;19912;-71
2022/12/30 02:38:39;;;;;;;;;;;6.50;99.90;;;;;;5089757;28;19965;-71
2022/12/30 02:46:54;;;;;;;;;;;6.50;99.90;;;;;;5090049;28;19972;-71
2022/12/30 02:49:20;;;;;;;;;;;6.50;99.90;;;;;;5089061;28;19923;-71
2022/12/30 02:54:31;;;;;;;;;;;6.50;99.90;;;;;;5089229;28;19950;-69
2022/12/30 02:56:56;;;;;;;;;;;6.50;99.90;;;;;;5070961;28;19951;-68
2022/12/30 03:05:24;;;;;;;;;;;6.40;99.90;;;;;;5089238;28;19926;-68
2022/12/30 03:07:55;;;;;;;;;;;6.40;99.90;;;;;;5089442;28;19934;-69
2022/12/30 03:13:29;;;;;;;;;;;6.40;99.90;;;;;;5089317;28;19931;-69
2022/12/30 03:16:05;;;;;;;;;;;6.40;99.90;;;;;;5088945;28;19919;-69
2022/12/30 03:18:32;;;;;;;;;;;6.40;99.90;;;;;;5088804;28;19912;-69
2022/12/30 03:20:59;;;;;;;;;;;6.40;99.90;;;;;;5088026;28;19912;-69
2022/12/30 03:28:55;;;;;;;;;;;6.40;99.90;;;;;;5090187;28;19919;-69
2022/12/30 03:31:20;;;;;;;;;;;6.40;99.90;;;;;;5089161;28;19909;-69
2022/12/30 03:33:46;;;;;;;;;;;6.40;99.90;;;;;;5080883;28;19912;-69
2022/12/30 03:36:23;;;;;;;;;;;6.30;99.90;;;;;;5068472;28;19917;-69
2022/12/30 03:39:12;;;;;;;;;;;6.30;99.90;;;;;;5068648;28;19935;-69
2022/12/30 03:41:37;;;;;;;;;;;6.30;99.90;;;;;;5063739;28;19912;-69
2022/12/30 03:44:03;;;;;;;;;;;6.30;99.90;;;;;;5070339;28;19916;-69
2022/12/30 03:46:31;;;;;;;;;;;6.30;99.90;;;;;;5088201;28;19916;-69
2022/12/30 03:48:56;;;;;;;;;;;6.30;99.90;;;;;;5088474;28;19919;-69
2022/12/30 03:51:22;;;;;;;;;;;6.30;99.90;;;;;;5088103;28;19912;-69
2022/12/30 03:53:47;;;;;;;;;;;6.30;99.90;;;;;;5087615;28;19912;-69
2022/12/30 03:56:13;;;;;;;;;;;6.30;99.90;;;;;;5086622;28;20597;-69
2022/12/30 03:58:38;;;;;;;;;;;6.30;99.90;;;;;;5086704;28;19912;-68
2022/12/30 04:01:04;;;;;;;;;;;6.30;99.90;;;;;;5086213;28;20509;-69
2022/12/30 04:03:29;;;;;;;;;;;6.30;99.90;;;;;;5087866;28;20388;-69
2022/12/30 04:05:55;;;;;;;;;;;6.30;99.90;;;;;;5088284;28;19969;-69
2022/12/30 04:08:23;;;;;;;;;;;6.30;99.90;;;;;;5088208;28;19918;-69
2022/12/30 04:10:49;;;;;;;;;;;6.30;99.90;;;;;;5088047;28;20010;-69
2022/12/30 04:13:15;;;;;;;;;;;6.20;99.90;;;;;;5088145;28;20144;-69
2022/12/30 04:15:40;;;;;;;;;;;6.20;99.90;;;;;;5088114;28;19915;-69
2022/12/30 04:18:06;;;;;;;;;;;6.20;99.90;;;;;;5087702;28;20623;-69
2022/12/30 04:20:31;;;;;;;;;;;6.20;99.90;;;;;;5087291;28;19912;-69
2022/12/30 04:23:00;;;;;;;;;;;6.20;99.90;;;;;;5087453;28;19912;-69
2022/12/30 04:25:25;;;;;;;;;;;6.20;99.90;;;;;;5087580;28;19953;-69
2022/12/30 04:27:51;;;;;;;;;;;6.20;99.90;;;;;;5087472;28;20386;-69
2022/12/30 04:30:17;;;;;;;;;;;6.20;99.90;;;;;;5087390;28;19963;-69
2022/12/30 04:32:42;;;;;;;;;;;6.20;99.90;;;;;;5087633;28;19934;-69
2022/12/30 04:35:08;;;;;;;;;;;6.20;99.90;;;;;;5087777;28;19977;-69
2022/12/30 04:37:33;;;;;;;;;;;6.20;99.90;;;;;;5087750;28;20560;-69
2022/12/30 04:39:59;;;;;;;;;;;6.20;99.90;;;;;;5087752;28;19957;-69
2022/12/30 04:42:24;;;;;;;;;;;6.20;99.90;;;;;;5069150;28;19912;-69
2022/12/30 04:44:50;;;;;;;;;;;6.20;99.90;;;;;;5087376;28;20319;-69
2022/12/30 04:47:15;;;;;;;;;;;6.20;99.90;;;;;;5087219;28;20268;-69
2022/12/30 04:49:41;;;;;;;;;;;6.20;99.90;;;;;;5087105;28;19965;-69
2022/12/30 04:52:06;;;;;;;;;;;6.10;99.90;;;;;;5087403;28;19934;-69
2022/12/30 04:54:32;;;;;;;;;;;6.10;99.90;;;;;;5087181;28;19916;-69
2022/12/30 04:56:58;;;;;;;;;;;6.10;99.90;;;;;;5068857;28;20084;-69
2022/12/30 04:59:23;;;;;;;;;;;6.20;99.90;;;;;;5068533;28;19916;-69
2022/12/30 05:01:49;;;;;;;;;;;6.10;99.90;;;;;;5087067;28;19919;-69
2022/12/30 05:04:14;;;;;;;;;;;6.10;99.90;;;;;;5087089;28;20579;-69
2022/12/30 05:06:40;;;;;;;;;;;6.10;99.90;;;;;;5086759;28;19912;-69
2022/12/30 05:09:05;;;;;;;;;;;6.10;99.90;;;;;;5087198;28;19982;-69
2022/12/30 05:11:31;;;;;;;;;;;6.10;99.90;;;;;;5086620;28;20441;-69
2022/12/30 05:13:56;;;;;;;;;;;6.10;99.90;;;;;;5086728;28;20044;-69
2022/12/30 05:16:21;;;;;;;;;;;6.10;99.90;;;;;;5086642;28;19916;-69
2022/12/30 05:18:47;;;;;;;;;;;6.10;99.90;;;;;;5086898;28;19916;-69
2022/12/30 05:21:12;;;;;;;;;;;6.00;99.90;;;;;;5085747;28;20735;-69
2022/12/30 05:26:22;;;;;;;;;;;6.00;99.90;;;;;;5086834;28;20396;-71
2022/12/30 05:28:48;;;;;;;;;;;6.10;99.90;;;;;;5086472;28;19912;-71
2022/12/30 05:31:14;;;;;;;;;;;6.00;99.90;;;;;;5086342;28;19916;-71
2022/12/30 05:33:40;;;;;;;;;;;6.00;99.90;;;;;;5068221;28;19955;-71
2022/12/30 05:36:05;;;;;;;;;;;6.00;99.90;;;;;;5086757;28;20360;-71
2022/12/30 05:38:31;;;;;;;;;;;6.00;99.90;;;;;;5086530;28;19912;-71
2022/12/30 05:40:56;;;;;;;;;;;6.00;99.90;;;;;;5086013;28;19912;-71
2022/12/30 05:43:22;;;;;;;;;;;6.00;99.90;;;;;;5086770;28;19913;-72
2022/12/30 05:45:47;;;;;;;;;;;6.00;99.90;;;;;;5086524;28;19969;-71
2022/12/30 05:48:13;;;;;;;;;;;6.00;99.90;;;;;;5086932;28;20000;-71
2022/12/30 05:50:39;;;;;;;;;;;6.00;99.90;;;;;;5086029;28;19919;-68
2022/12/30 05:53:04;;;;;;;;;;;6.00;99.90;;;;;;5086626;28;19908;-69
2022/12/30 05:55:30;;;;;;;;;;;6.00;99.90;;;;;;5086906;28;19912;-69
2022/12/30 05:57:56;;;;;;;;;;;6.00;99.90;;;;;;5086316;28;19916;-69
2022/12/30 06:00:21;;;;;;;;;;;6.00;99.90;;;;;;5085986;28;20023;-69
2022/12/30 06:02:47;;;;;;;;;;;6.00;99.90;;;;;;5085907;28;19998;-69
2022/12/30 06:05:12;;;;;;;;;;;6.00;99.90;;;;;;5086249;28;19912;-69
2022/12/30 06:07:38;;;;;;;;;;;6.00;99.90;;;;;;5086407;28;19943;-69
2022/12/30 06:10:03;;;;;;;;;;;6.00;99.90;;;;;;5067919;28;19934;-69
2022/12/30 06:12:29;;;;;;;;;;;6.00;99.90;;;;;;5086594;28;19908;-69
2022/12/30 06:14:54;;;;;;;;;;;6.00;99.90;;;;;;5086009;28;19912;-69
2022/12/30 06:17:20;;;;;;;;;;;5.90;99.90;;;;;;5087225;28;19964;-69
2022/12/30 06:19:45;;;;;;;;;;;5.90;99.90;;;;;;5090300;28;19912;-69
2022/12/30 06:22:11;;;;;;;;;;;5.90;99.90;;;;;;5089252;28;20284;-70
2022/12/30 06:24:36;;;;;;;;;;;5.90;99.90;;;;;;5090403;28;19958;-69
2022/12/30 06:27:02;;;;;;;;;;;5.90;99.90;;;;;;5090138;28;19985;-69
2022/12/30 06:29:27;;;;;;;;;;;5.90;99.90;;;;;;5071430;28;19912;-69
2022/12/30 06:31:52;;;;;;;;;;;5.90;99.90;;;;;;5088774;28;19916;-69
2022/12/30 06:34:18;;;;;;;;;;;5.90;99.90;;;;;;5088651;28;20059;-69
2022/12/30 06:36:43;;;;;;;;;;;5.90;99.90;;;;;;5088544;28;19916;-69
2022/12/30 06:39:09;;;;;;;;;;;5.90;99.90;;;;;;5088782;28;19965;-69
2022/12/30 06:41:34;;;;;;;;;;;5.90;99.90;;;;;;5089664;28;19908;-69
2022/12/30 06:44:00;;;;;;;;;;;5.80;99.90;;;;;;5089728;28;20013;-69
2022/12/30 06:46:25;;;;;;;;;;;5.80;99.90;;;;;;5090246;28;20295;-69
2022/12/30 06:48:51;;;;;;;;;;;5.90;99.90;;;;;;5089908;28;19912;-69
2022/12/30 06:51:16;;;;;;;;;;;5.90;99.90;;;;;;5089388;28;20403;-69
2022/12/30 06:53:42;;;;;;;;;;;5.90;99.90;;;;;;5089445;28;19912;-69
2022/12/30 06:56:07;;;;;;;;;;;5.80;99.90;;;;;;5089513;28;20376;-69
2022/12/30 06:58:33;;;;;;;;;;;5.90;99.90;;;;;;5070466;28;19917;-69
2022/12/30 07:00:58;;;;;;;;;;;5.90;99.90;;;;;;5068904;28;19919;-69
2022/12/30 07:03:24;;;;;;;;;;;5.80;99.90;;;;;;5069216;28;19924;-69
2022/12/30 07:05:49;;;;;;;;;;;5.80;99.90;;;;;;5069119;28;20449;-69
2022/12/30 07:08:15;;;;;;;;;;;5.90;99.90;;;;;;5069086;28;19952;-69
2022/12/30 07:10:40;;;;;;;;;;;5.90;99.90;;;;;;5079280;28;19912;-69
2022/12/30 07:13:06;;;;;;;;;;;5.90;99.90;;;;;;5070121;28;19920;-69
2022/12/30 07:15:31;;;;;;;;;;;5.90;99.90;;;;;;5089201;28;19916;-69
2022/12/30 07:17:57;;;;;;;;;;;5.80;99.90;;;;;;5088938;28;19916;-69
2022/12/30 07:20:23;;;;;;;;;;;5.80;99.90;;;;;;5087969;28;19957;-69
2022/12/30 07:22:48;;;;;;;;;;;5.90;99.90;;;;;;5070286;28;20624;-69
2022/12/30 07:25:14;;;;;;;;;;;5.80;99.90;;;;;;5088823;28;19908;-69
2022/12/30 07:27:39;;;;;;;;;;;5.90;99.90;;;;;;5070775;28;19912;-69
2022/12/30 07:30:05;;;;;;;;;;;5.80;99.90;;;;;;5069748;28;19919;-69
2022/12/30 07:32:31;;;;;;;;;;;5.80;99.90;;;;;;5088726;28;19908;-69
2022/12/30 07:34:56;;;;;;;;;;;5.80;99.90;;;;;;5088238;28;19916;-69
2022/12/30 07:37:22;;;;;;;;;;;5.80;99.90;;;;;;5087794;28;19958;-69
2022/12/30 07:39:47;;;;;;;;;;;5.80;99.90;;;;;;5087795;28;19916;-69
2022/12/30 07:42:13;;;;;;;;;;;5.80;99.90;;;;;;5088107;28;19942;-69
2022/12/30 07:44:38;;;;;;;;;;;5.80;99.90;;;;;;5087994;28;19912;-69
2022/12/30 07:47:04;;;;;;;;;;;5.90;99.90;;;;;;5088330;28;20432;-69
2022/12/30 07:49:30;;;;;;;;;;;5.80;99.90;;;;;;5088012;28;19916;-69
2022/12/30 07:51:55;;;;;;;;;;;5.90;99.90;;;;;;5088099;28;20493;-69
2022/12/30 07:54:21;;;;;;;;;;;5.80;99.90;;;;;;5088376;28;19916;-69
2022/12/30 07:56:46;;;;;;;;;;;5.90;99.90;;;;;;5070130;28;19924;-69
2022/12/30 07:59:12;;;;;;;;;;;5.90;99.90;;;;;;5088160;28;19916;-69
2022/12/30 08:01:38;;;;;;;;;;;5.90;99.90;;;;;;5088359;28;19912;-69
2022/12/30 08:04:04;;;;;;;;;;;5.90;99.90;;;;;;5088232;28;20493;-69
2022/12/30 08:06:29;;;;;;;;;;;5.90;99.90;;;;;;5087367;28;19991;-69
2022/12/30 08:08:55;;;;;;;;;;;5.90;99.90;;;;;;5087911;28;19919;-69
2022/12/30 08:11:20;;;;;;;;;;;5.90;99.90;;;;;;5087703;28;19916;-69
2022/12/30 08:13:46;;;;;;;;;;;5.90;99.90;;;;;;5087428;28;20344;-69
2022/12/30 08:16:13;;;;;;;;;;;5.90;99.90;;;;;;5087168;28;19919;-69
2022/12/30 08:18:38;;;;;;;;;;;5.90;99.90;;;;;;5087493;28;19912;-69
2022/12/30 08:21:05;;;;;;;;;;;5.90;99.90;;;;;;5086779;28;19919;-69
2022/12/30 08:23:31;;;;;;;;;;;5.90;99.90;;;;;;5085403;28;19961;-69
2022/12/30 08:26:02;;;;;;;;;;;5.90;99.90;;;;;;5087006;28;20667;-69
2022/12/30 08:28:28;;;;;;;;;;;5.90;99.90;;;;;;5086239;28;19951;-69
2022/12/30 08:30:53;;;;;;;;;;;5.90;99.90;;;;;;5088016;28;20504;-69
2022/12/30 08:33:19;;;;;;;;;;;6.00;99.90;;;;;;5087568;28;19999;-69
2022/12/30 08:35:44;;;;;;;;;;;5.90;99.90;;;;;;5087661;28;19912;-69
2022/12/30 08:38:10;;;;;;;;;;;5.90;99.90;;;;;;5087307;28;20280;-69
2022/12/30 08:40:35;;;;;;;;;;;6.00;99.90;;;;;;5086619;28;19957;-69
2022/12/30 08:43:00;;;;;;;;;;;6.00;99.90;;;;;;5068636;28;19912;-69
2022/12/30 08:45:26;;;;;;;;;;;6.00;99.90;;;;;;5087373;28;19919;-69
2022/12/30 08:47:52;;;;;;;;;;;6.00;99.90;;;;;;5087605;28;19916;-69
2022/12/30 08:50:17;;;;;;;;;;;6.00;99.90;;;;;;5087005;28;19912;-69
2022/12/30 08:52:43;;;;;;;;;;;6.00;99.90;;;;;;5087395;28;19916;-69
2022/12/30 08:55:08;;;;;;;;;;;6.10;99.90;;;;;;5087529;28;19912;-69
2022/12/30 08:57:37;;;;;;;;;;;6.00;99.90;;;;;;5087339;28;19918;-69
2022/12/30 09:00:02;;;;;;;;;;;6.10;99.90;;;;;;5087310;28;19912;-69
2022/12/30 09:02:28;;;;;;;;;;;6.10;99.90;;;;;;5087479;28;19912;-69
2022/12/30 09:04:53;;;;;;;;;;;6.10;99.90;;;;;;5087156;28;20435;-69
2022/12/30 09:07:19;;;;;;;;;;;6.10;99.90;;;;;;5087247;28;19958;-69
2022/12/30 09:09:44;;;;;;;;;;;6.10;99.90;;;;;;5086860;28;19915;-69
2022/12/30 09:12:10;;;;;;;;;;;6.10;99.90;;;;;;5087003;28;19912;-69
2022/12/30 09:14:35;;;;;;;;;;;6.10;99.90;;;;;;5086758;28;19927;-69
2022/12/30 09:17:01;;;;;;;;;;;6.10;99.90;;;;;;5086886;28;20569;-69
2022/12/30 09:19:26;;;;;;;;;;;6.20;99.90;;;;;;5068177;28;19919;-69
2022/12/30 09:21:51;;;;;;;;;;;6.10;99.90;;;;;;5086378;28;19988;-69
2022/12/30 09:24:17;;;;;;;;;;;6.20;99.90;;;;;;5086762;28;19912;-69
2022/12/30 09:26:42;;;;;;;;;;;6.20;99.90;;;;;;5087045;28;19916;-69
2022/12/30 09:29:08;;;;;;;;;;;6.20;99.90;;;;;;5086944;28;19999;-69
2022/12/30 09:31:33;;;;;;;;;;;6.20;99.90;;;;;;5086705;28;20319;-69
2022/12/30 09:33:59;;;;;;;;;;;6.20;99.90;;;;;;5086632;28;20551;-69
2022/12/30 09:36:24;;;;;;;;;;;6.30;99.90;;;;;;5086811;28;19923;-69
2022/12/30 09:38:50;;;;;;;;;;;6.20;99.90;;;;;;5086032;28;19916;-69
2022/12/30 09:44:19;;;;;;;;;;;6.30;99.90;;;;;;5084100;28;19919;-69
2022/12/30 09:47:00;;;;;;;;;;;6.30;99.90;;;;;;5086166;28;20505;-68
2022/12/30 09:49:48;;;;;;;;;;;6.30;99.90;;;;;;5085859;28;19924;-69
2022/12/30 09:52:40;;;;;;;;;;;6.30;99.90;;;;;;5075619;28;20015;-68
2022/12/30 09:55:11;;;;;;;;;;;6.30;99.90;;;;;;5086673;28;19916;-69
2022/12/30 09:57:37;;;;;;;;;;;6.40;99.90;;;;;;5072223;28;19923;-69
2022/12/30 10:00:07;;;;;;;;;;;6.30;99.90;;;;;;5090307;28;19916;-68
2022/12/30 10:02:41;;;;;;;;;;;6.40;99.90;;;;;;5090400;28;20003;-68
2022/12/30 10:05:10;;;;;;;;;;;6.40;99.90;;;;;;5090334;28;20587;-68
2022/12/30 10:07:40;;;;;;;;;;;6.40;99.90;;;;;;5090008;28;20002;-69
2022/12/30 10:10:16;;;;;;;;;;;6.40;99.90;;;;;;5090028;28;19953;-69
2022/12/30 10:12:50;;;;;;;;;;;6.50;99.90;;;;;;5088039;28;19915;-69
2022/12/30 10:15:26;;;;;;;;;;;6.50;99.90;;;;;;5089848;28;19916;-69
2022/12/30 10:18:10;;;;;;;;;;;6.60;99.90;;;;;;5090401;28;20006;-69
2022/12/30 10:20:39;;;;;;;;;;;6.60;99.90;;;;;;5089210;28;19916;-69
2022/12/30 10:23:16;;;;;;;;;;;6.60;99.90;;;;;;5089930;28;19969;-69
2022/12/30 10:25:47;;;;;;;;;;;6.60;99.90;;;;;;5090354;28;19912;-69
2022/12/30 10:28:14;;;;;;;;;;;6.60;99.90;;;;;;5089916;28;20630;-69
2022/12/30 10:30:42;;;;;;;;;;;6.70;99.90;;;;;;5089835;28;19989;-68
2022/12/30 10:33:13;;;;;;;;;;;6.70;99.90;;;;;;5071598;28;20007;-69
2022/12/30 10:35:39;;;;;;;;;;;6.70;99.90;;;;;;5089970;28;19915;-69
2022/12/30 10:38:09;;;;;;;;;;;6.80;99.90;;;;;;5090324;28;19922;-69
2022/12/30 10:40:44;;;;;;;;;;;6.80;99.90;;;;;;5089744;28;19947;-69
2022/12/30 10:43:33;;;;;;;;;;;6.80;99.90;;;;;;5089773;28;19912;-69
2022/12/30 10:45:58;;;;;;;;;;;6.80;99.90;;;;;;5060665;28;19916;-69
2022/12/30 10:48:27;;;;;;;;;;;6.90;99.90;;;;;;5089732;28;20512;-68
2022/12/30 10:50:53;;;;;;;;;;;6.90;99.90;;;;;;5089572;28;20292;-68
2022/12/30 10:53:20;;;;;;;;;;;6.90;99.90;;;;;;5089537;28;19919;-69
2022/12/30 10:55:48;;;;;;;;;;;7.00;99.90;;;;;;5089773;28;19908;-69
2022/12/30 10:58:22;;;;;;;;;;;7.00;99.90;;;;;;5089668;28;19920;-68
2022/12/30 11:00:48;;;;;;;;;;;7.00;99.90;;;;;;5089189;28;19916;-68
2022/12/30 11:03:31;;;;;;;;;;;7.00;99.90;;;;;;5089439;28;19916;-68
2022/12/30 11:05:56;;;;;;;;;;;7.10;99.90;;;;;;5088871;28;20616;-69
2022/12/30 11:08:27;;;;;;;;;;;7.10;99.90;;;;;;5071219;28;19919;-68
2022/12/30 11:10:58;;;;;;;;;;;7.10;99.90;;;;;;5089260;28;20002;-68
2022/12/30 11:16:08;;;;;;;;;;;7.20;99.90;;;;;;5089525;28;19951;-68
2022/12/30 11:18:35;;;;;;;;;;;7.20;99.90;;;;;;5089070;28;19955;-69
2022/12/30 11:21:00;;;;;;;;;;;7.20;99.90;;;;;;5088331;28;20414;-69
2022/12/30 11:23:34;;;;;;;;;;;7.20;99.90;;;;;;5088862;28;20023;-69
2022/12/30 11:26:01;;;;;;;;;;;7.20;99.90;;;;;;5084348;28;20025;-68
2022/12/30 11:28:28;;;;;;;;;;;7.20;99.90;;;;;;5086781;28;19991;-68
2022/12/30 11:30:59;;;;;;;;;;;7.20;99.90;;;;;;5080559;28;20402;-69
2022/12/30 11:33:30;;;;;;;;;;;7.30;99.90;;;;;;5062496;28;19998;-68
2022/12/30 11:36:14;;;;;;;;;;;7.30;99.90;;;;;;5086822;28;19913;-68
2022/12/30 11:38:40;;;;;;;;;;;7.30;99.90;;;;;;5070042;28;20276;-69
2022/12/30 11:41:18;;;;;;;;;;;7.30;99.90;;;;;;5088263;28;19909;-68
2022/12/30 11:43:43;;;;;;;;;;;7.30;99.90;;;;;;5088333;28;20284;-68
2022/12/30 11:46:10;;;;;;;;;;;7.30;99.90;;;;;;5087117;28;19916;-68
2022/12/30 11:48:38;;;;;;;;;;;7.30;99.90;;;;;;5087851;28;20057;-68
2022/12/30 11:51:13;;;;;;;;;;;7.30;99.90;;;;;;5087501;28;19918;-69
2022/12/30 11:53:38;;;;;;;;;;;7.30;99.90;;;;;;5087960;28;20120;-69
2022/12/30 11:56:04;;;;;;;;;;;7.30;99.90;;;;;;5070036;28;20006;-68
2022/12/30 11:58:32;;;;;;;;;;;7.30;99.90;;;;;;5088122;28;19916;-68
2022/12/30 12:01:03;;;;;;;;;;;7.30;99.90;;;;;;5087844;28;20124;-69
2022/12/30 12:03:29;;;;;;;;;;;7.30;99.90;;;;;;5069492;28;19999;-68
2022/12/30 12:06:09;;;;;;;;;;;7.30;99.90;;;;;;5087839;28;20420;-68
2022/12/30 12:08:46;;;;;;;;;;;7.30;99.90;;;;;;5088222;28;20277;-68
2022/12/30 12:11:23;;;;;;;;;;;7.30;99.90;;;;;;5087453;28;19912;-69
2022/12/30 12:14:01;;;;;;;;;;;7.30;99.90;;;;;;5087384;28;19927;-68
2022/12/30 12:16:37;;;;;;;;;;;7.30;99.90;;;;;;5069308;28;19912;-69
2022/12/30 12:19:11;;;;;;;;;;;7.30;99.90;;;;;;5087897;28;20384;-69
2022/12/30 12:21:38;;;;;;;;;;;7.30;99.90;;;;;;5086998;28;19943;-68
2022/12/30 12:24:09;;;;;;;;;;;7.40;99.90;;;;;;5087791;28;19912;-68
2022/12/30 12:26:41;;;;;;;;;;;7.40;99.90;;;;;;5087901;28;19915;-68
2022/12/30 12:29:10;;;;;;;;;;;7.30;99.90;;;;;;5087423;28;19912;-68
2022/12/30 12:31:54;;;;;;;;;;;7.30;99.90;;;;;;5086343;28;19951;-69
2022/12/30 12:34:22;;;;;;;;;;;7.40;99.90;;;;;;5074903;28;19916;-69
2022/12/30 12:37:13;;;;;;;;;;;7.40;99.90;;;;;;5067393;28;19917;-69
2022/12/30 12:39:50;;;;;;;;;;;7.40;99.90;;;;;;5066339;28;19954;-69
2022/12/30 12:42:25;;;;;;;;;;;7.40;99.90;;;;;;5077296;28;19950;-69
2022/12/30 12:45:06;;;;;;;;;;;7.40;99.90;;;;;;5087300;28;19919;-69
2022/12/30 12:47:52;;;;;;;;;;;7.40;99.90;;;;;;5084054;28;19918;-69
2022/12/30 12:50:24;;;;;;;;;;;7.40;99.90;;;;;;5082974;28;20027;-69
2022/12/30 12:52:56;;;;;;;;;;;7.40;99.90;;;;;;5086512;28;20441;-69
2022/12/30 12:55:22;;;;;;;;;;;7.40;99.90;;;;;;5085978;28;19918;-69
2022/12/30 12:57:58;;;;;;;;;;;7.40;99.90;;;;;;5086021;28;19916;-69
2022/12/30 13:00:28;;;;;;;;;;;7.40;99.90;;;;;;5086658;28;19916;-68
2022/12/30 13:03:13;;;;;;;;;;;7.40;99.90;;;;;;5086718;28;19961;-69
2022/12/30 13:05:48;;;;;;;;;;;7.40;99.90;;;;;;5048963;28;19919;-68
2022/12/30 13:08:22;;;;;;;;;;;7.40;99.90;;;;;;5066832;28;19916;-68
2022/12/30 13:11:09;;;;;;;;;;;7.50;99.90;;;;;;5066738;28;19959;-69
2022/12/30 13:13:52;;;;;;;;;;;7.50;99.90;;;;;;5086965;28;19920;-69
2022/12/30 13:16:23;;;;;;;;;;;7.50;99.90;;;;;;5086408;28;19908;-68
2022/12/30 13:18:50;;;;;;;;;;;7.50;99.90;;;;;;5087035;28;19916;-69
2022/12/30 13:21:21;;;;;;;;;;;7.50;99.90;;;;;;5085974;28;20323;-69
2022/12/30 13:23:51;;;;;;;;;;;7.50;99.90;;;;;;5086962;28;19920;-69
2022/12/30 13:26:19;;;;;;;;;;;7.60;99.90;;;;;;5081060;28;19912;-69
2022/12/30 13:28:48;;;;;;;;;;;7.60;99.90;;;;;;5085919;28;20430;-69
2022/12/30 13:31:19;;;;;;;;;;;7.60;99.90;;;;;;5082556;28;20011;-69
2022/12/30 13:33:52;;;;;;;;;;;7.60;99.90;;;;;;5068128;28;19941;-69
2022/12/30 13:36:20;;;;;;;;;;;7.60;99.90;;;;;;5086369;28;19912;-69
2022/12/30 13:39:00;;;;;;;;;;;7.60;99.90;;;;;;5086699;28;19909;-69
2022/12/30 13:41:26;;;;;;;;;;;7.60;99.90;;;;;;5086368;28;19908;-69
2022/12/30 13:43:54;;;;;;;;;;;7.60;99.90;;;;;;5068100;28;19919;-69
2022/12/30 13:46:25;;;;;;;;;;;7.60;99.90;;;;;;5066728;28;19916;-69
2022/12/30 13:48:53;;;;;;;;;;;7.70;99.90;;;;;;5086159;28;19912;-69
2022/12/30 13:51:20;;;;;;;;;;;7.60;99.90;;;;;;5085443;28;19916;-69
2022/12/30 13:53:50;;;;;;;;;;;7.60;99.90;;;;;;5086469;28;20441;-68
2022/12/30 13:56:18;;;;;;;;;;;7.60;99.90;;;;;;5086755;28;19995;-68
2022/12/30 13:58:46;;;;;;;;;;;7.60;99.90;;;;;;5066206;28;19913;-68
2022/12/30 14:01:20;;;;;;;;;;;7.60;99.90;;;;;;5066171;28;20028;-69
2022/12/30 14:03:49;;;;;;;;;;;7.60;99.90;;;;;;5073622;28;19912;-69
2022/12/30 14:06:20;;;;;;;;;;;7.60;99.90;;;;;;5086467;28;20463;-69
2022/12/30 14:08:47;;;;;;;;;;;7.60;99.90;;;;;;5086333;28;19965;-69
2022/12/30 14:11:13;;;;;;;;;;;7.60;99.90;;;;;;5067803;28;19938;-68
2022/12/30 14:13:40;;;;;;;;;;;7.60;99.90;;;;;;5085274;28;19993;-68
2022/12/30 14:16:24;;;;;;;;;;;7.60;99.90;;;;;;5086030;28;19908;-68
2022/12/30 14:18:53;;;;;;;;;;;7.50;99.90;;;;;;5086382;28;20600;-69
2022/12/30 14:21:20;;;;;;;;;;;7.60;99.90;;;;;;5085000;28;19909;-69
2022/12/30 14:23:57;;;;;;;;;;;7.50;99.90;;;;;;5086090;28;19951;-68
2022/12/30 14:26:26;;;;;;;;;;;7.60;99.90;;;;;;5068164;28;19924;-69
2022/12/30 14:28:51;;;;;;;;;;;7.60;99.90;;;;;;5085325;28;20096;-68
2022/12/30 14:31:35;;;;;;;;;;;7.50;99.90;;;;;;5066401;28;19916;-69
2022/12/30 14:34:05;;;;;;;;;;;7.50;99.90;;;;;;5081275;28;20289;-68
2022/12/30 14:36:31;;;;;;;;;;;7.50;99.90;;;;;;5085188;28;20440;-68
2022/12/30 14:39:01;;;;;;;;;;;7.50;99.90;;;;;;5083724;28;20043;-69
2022/12/30 14:41:36;;;;;;;;;;;7.50;99.90;;;;;;5088021;28;19986;-69
2022/12/30 14:44:14;;;;;;;;;;;7.50;99.90;;;;;;5085910;28;20511;-68
2022/12/30 14:46:45;;;;;;;;;;;7.60;99.90;;;;;;5088455;28;19938;-68
2022/12/30 14:49:19;;;;;;;;;;;7.50;99.90;;;;;;5088496;28;20407;-69
2022/12/30 14:51:56;;;;;;;;;;;7.50;99.90;;;;;;5085176;28;19993;-68
2022/12/30 14:54:41;;;;;;;;;;;7.50;99.90;;;;;;5088599;28;19945;-68
2022/12/30 14:57:16;;;;;;;;;;;7.50;99.90;;;;;;5084914;28;20038;-68
2022/12/30 14:59:47;;;;;;;;;;;7.50;99.90;;;;;;5088083;28;19959;-68
2022/12/30 15:02:15;;;;;;;;;;;7.50;99.90;;;;;;5088476;28;19993;-68
2022/12/30 15:04:41;;;;;;;;;;;7.50;99.90;;;;;;5068548;28;19988;-69
2022/12/30 15:07:07;;;;;;;;;;;7.50;99.90;;;;;;5088471;28;20554;-68
2022/12/30 15:09:33;;;;;;;;;;;7.50;99.90;;;;;;5087895;28;19918;-68
2022/12/30 15:12:00;;;;;;;;;;;7.50;99.90;;;;;;5087861;28;19919;-68
2022/12/30 15:14:26;;;;;;;;;;;7.50;99.90;;;;;;5066831;28;19916;-69
2022/12/30 15:17:17;;;;;;;;;;;7.50;99.90;;;;;;5087828;28;19923;-68
2022/12/30 15:19:43;;;;;;;;;;;7.50;99.90;;;;;;5086577;28;19916;-69
2022/12/30 15:22:12;;;;;;;;;;;7.50;99.90;;;;;;5087361;28;19991;-68
2022/12/30 15:24:42;;;;;;;;;;;7.50;99.90;;;;;;5069646;28;19918;-69
2022/12/30 15:27:16;;;;;;;;;;;7.50;99.90;;;;;;5062928;28;19970;-68
2022/12/30 15:29:41;;;;;;;;;;;7.50;99.90;;;;;;5078245;28;20003;-68
2022/12/30 15:32:20;;;;;;;;;;;7.50;99.90;;;;;;5087524;28;20002;-68
2022/12/30 15:34:45;;;;;;;;;;;7.60;99.90;;;;;;5087305;28;20310;-69
2022/12/30 15:37:22;;;;;;;;;;;7.50;99.90;;;;;;5087899;28;19912;-69
2022/12/30 15:39:52;;;;;;;;;;;7.50;99.90;;;;;;5087611;28;19946;-69
2022/12/30 15:42:31;;;;;;;;;;;7.50;99.90;;;;;;5087572;28;19955;-69